GOOYSBNT

Guest
Details From GOOY - Dakar Leopold Sedar Senghor Intl
To SBNT - Augusto Severo
Flight Number -
Tags generated
Created
Modified
Stats Distance 1,785 nm / 3,307 km
Max Altitude 34,000 ft / 10,363 m
Waypoints 14
Social Downloads 0
Likes 0
Share VATSIM

Download

Looking for another format? Having issues loading an existing format? Contact us
Advertisement - Login to hide

Notes

Basic altitude profile: - Ascent Rate: 2500ft/min - Ascent Speed: 250kts - Cruise Altitude: 36000ft - Cruise Speed: 420kts - Descent Rate: 1500ft/min - Descent Speed: 250kts Options: - Use NATs: yes - Use PACOTS: yes - Use low airways: no - Use high airways: yes

Route

GOOY INIRO UA302 KODOS DIGOR UL375 NOISE NAMBI EPODE UN873 IBAGA SBNT

ID Type Via Altitude Latitude Longitude Leg Dist Tot Dist Heading (true) Name
O GOOY APT - 0 ft / 0 m 14.73971˚ -17.49023˚ - 0 nm - Dakar Leopold Sedar Senghor Intl
INIRO FIX - 34,000 ft / 10,363 m 13.33194˚ -18.42778˚ 100 nm 100 nm 213° / 213° -
TAROT FIX UA302 (AWY-HI) 34,000 ft / 10,363 m 11.46500˚ -19.66667˚ 133 nm 234 nm 213° / 213° -
LIROL FIX UA302 (AWY-HI) 34,000 ft / 10,363 m 6.34500˚ -22.97500˚ 364 nm 599 nm 213° / 212° -
ASOBU FIX UA302 (AWY-HI) 34,000 ft / 10,363 m 4.35361˚ -24.22667˚ 141 nm 740 nm 212° / 212° -
KODOS FIX UA302 (AWY-HI) 34,000 ft / 10,363 m 1.20300˚ -26.21700˚ 223 nm 963 nm 212° / 212° -
DIGOR FIX - 34,000 ft / 10,363 m 0.66667˚ -28.66667˚ 150 nm 1114 nm 258° / 258° -
NOISE FIX UL375 (AWY-HI) 34,000 ft / 10,363 m 1.39450˚ -29.70917˚ 76 nm 1190 nm 305° / 305° -
NAMBI FIX - 34,000 ft / 10,363 m 1.28833˚ -30.13600˚ 26 nm 1217 nm 256° / 256° -
EPODE FIX - 34,000 ft / 10,363 m 1.32250˚ -31.41233˚ 76 nm 1293 nm 272° / 272° -
INTOL FIX UN873 (AWY-HI) 34,000 ft / 10,363 m -1.36083˚ -32.83150˚ 182 nm 1476 nm 208° / 208° -
FEMUR FIX UN873 (AWY-HI) 32,100 ft / 9,784 m -3.63400˚ -34.03617˚ 154 nm 1630 nm 208° / 208° -
IBAGA FIX UN873 (AWY-HI) 28,000 ft / 8,534 m -5.31783˚ -34.93283˚ 114 nm 1745 nm 208° / 208° -
O SBNT APT - 0 ft / 0 m -5.91175˚ -35.24771˚ 40 nm 1785 nm 208° / 208° Augusto Severo

Altitude Profile

Advertisement - Login to hide

Weather


0- 5 10 15 20 25 30 35+ Temperature / ° C

Clouds and Precipitation
Forecast for 2017-12-16 06:00 UTC. Updated 43 minutes ago

Ground ~20,000 ft ~40,000 ft Winds

GOOY

Details ICAO GOOY (DKR)
Name Dakar Leopold Sedar Senghor Intl
Region Senegal
Timezone Africa/Dakar (UTC+0.0)
Stats Elevation 85 ft / 26 m (AMSL)
Location 14.739711° -17.490226°
Runways 2
Magnetic Variation 7.347° W

METAR

GOOY 160300Z 02010KT 8000 NSC 22/14 Q1014

Decode

TAF

TAF GOOY 152330Z 1600/1706 04010KT 8000 NSC= TAF GBYD 152330Z 1600/1706 04008KT CAVOK

Decode

Departure Runways

ID Width Length Bearing (true) Bearing (mag) Surface Threshold Offset Overrun Length
03 98 ft / 30 m 4,921 ft / 1,500 m 22.31° 29.66° Asphalt 0 ft / 0 m 98 ft / 30 m
18 148 ft / 45 m 11,511 ft / 3,509 m 172.57° 179.92° Asphalt 525 ft / 160 m 197 ft / 60 m
21 98 ft / 30 m 4,921 ft / 1,500 m 202.31° 209.66° Asphalt 0 ft / 0 m 1,590 ft / 485 m
36 148 ft / 45 m 11,511 ft / 3,509 m 352.57° 359.92° Asphalt 0 ft / 0 m 197 ft / 60 m

SBNT

Details ICAO SBNT (NAT)
Name Augusto Severo
Region Brazil
Timezone America/Fortaleza (UTC-3.0)
Stats Elevation 169 ft / 52 m (AMSL)
Location -5.911747° -35.247709°
Runways 3
Magnetic Variation 21.393° W

METAR

SBNT 160400Z 12008KT 9999 SCT019 26/22 Q1012

Decode

TAF

TAF SBNT 151500Z 1518/1618 11011KT 9999 SCT023 TN25/1607Z TX31/1615Z BECMG 1600/1601 14005KT BECMG 1611/1612 11013KT RMK PEA

Decode

Destination Runways

ID Width Length Bearing (true) Bearing (mag) Surface Threshold Offset Overrun Length
12 148 ft / 45 m 5,972 ft / 1,820 m 98.98° 120.37° Asphalt 0 ft / 0 m 0 ft / 0 m
16L 148 ft / 45 m 8,561 ft / 2,609 m 141.08° 162.47° Asphalt 0 ft / 0 m 279 ft / 85 m
16R 148 ft / 45 m 5,912 ft / 1,802 m 141.12° 162.51° Asphalt 0 ft / 0 m 1,350 ft / 411 m
30 148 ft / 45 m 5,972 ft / 1,820 m 278.98° 300.37° Asphalt 0 ft / 0 m 0 ft / 0 m
34L 148 ft / 45 m 5,912 ft / 1,802 m 321.12° 342.51° Asphalt 0 ft / 0 m 0 ft / 0 m
34R 148 ft / 45 m 8,561 ft / 2,609 m 321.08° 342.47° Asphalt 0 ft / 0 m 0 ft / 0 m

Approach Navaids

Runway Type Ident Frequency Range Bearing (true) Bearing (mag) Slope Elevation
16L Localiser INT 109.30 MHz 18 nm / 33 km 141.08° 162.47° - 169 ft / 52 m (AMSL)
16L Glidescope INT 109.30 MHz 10 nm / 19 km 141.08° 162.47° 3.00° 169 ft / 52 m (AMSL)
16L DME INT 109.30 MHz 18 nm / 33 km - - - 169 ft / 52 m (AMSL)

Popular Alternatives